Time;durP1;ratioP1;P1;durP2;ratioP2;P2;SDS_P1;SDS_P2;PMS_P1;PMS_P2;Temp;Humidity;BMP_temperature;BMP_pressure;BME280_temperature;BME280_humidity;BME280_pressure;Samples;Min_cycle;Max_cycle;Signal;HPM_P1;HPM_P2
2021/12/12 00:01:53;;;;;;;0.00;0.00;;;2.40;99.90;;;;;;5075891;28;20250;-73
2021/12/12 00:04:22;;;;;;;0.63;0.57;;;2.50;99.90;;;;;;5058807;28;20243;-74
2021/12/12 00:06:51;;;;;;;0.17;0.17;;;2.60;99.90;;;;;;5059041;28;20237;-73
2021/12/12 00:09:22;;;;;;;0.30;0.30;;;2.60;99.90;;;;;;5076284;28;20272;-74
2021/12/12 00:11:48;;;;;;;0.30;0.30;;;2.70;99.90;;;;;;5059045;28;20203;-73
2021/12/12 00:14:25;;;;;;;0.20;0.20;;;2.70;99.90;;;;;;5058101;28;20245;-73
2021/12/12 00:16:52;;;;;;;0.37;0.37;;;2.70;99.90;;;;;;5075950;28;20649;-73
2021/12/12 00:19:18;;;;;;;0.90;0.90;;;2.80;99.90;;;;;;5075942;28;20182;-74
2021/12/12 00:21:48;;;;;;;1.90;0.73;;;2.90;99.90;;;;;;5059072;28;20631;-74
2021/12/12 00:24:14;;;;;;;0.57;0.57;;;2.90;99.90;;;;;;5058163;28;20182;-73
2021/12/12 00:26:41;;;;;;;1.03;1.03;;;3.00;99.90;;;;;;5075932;28;20190;-73
2021/12/12 00:29:10;;;;;;;0.20;0.20;;;3.00;99.90;;;;;;5076430;28;20627;-73
2021/12/12 00:31:36;;;;;;;0.00;0.00;;;3.00;99.90;;;;;;5076433;28;20672;-74
2021/12/12 00:34:02;;;;;;;0.70;0.70;;;3.10;99.90;;;;;;5075982;28;20188;-73
2021/12/12 00:36:28;;;;;;;0.30;0.30;;;3.10;99.90;;;;;;5061473;28;20172;-73
2021/12/12 00:38:57;;;;;;;0.00;0.00;;;3.20;99.90;;;;;;5036973;28;20183;-73
2021/12/12 00:41:31;;;;;;;1.80;1.70;;;3.20;99.90;;;;;;5070505;28;20244;-73
2021/12/12 00:43:59;;;;;;;0.30;0.30;;;3.20;99.90;;;;;;5066104;28;20619;-73
2021/12/12 00:46:26;;;;;;;2.47;2.00;;;3.20;99.90;;;;;;5074192;28;20199;-73
2021/12/12 00:48:53;;;;;;;0.77;0.77;;;3.20;99.90;;;;;;5073930;28;20396;-73
2021/12/12 00:51:34;;;;;;;4.93;2.33;;;3.30;99.90;;;;;;5074069;28;20255;-73
2021/12/12 00:53:59;;;;;;;0.30;0.30;;;3.30;99.90;;;;;;5074625;28;20263;-73
2021/12/12 00:56:26;;;;;;;0.13;0.13;;;3.40;99.90;;;;;;5055986;28;20661;-73
2021/12/12 00:58:54;;;;;;;0.73;0.70;;;3.40;99.90;;;;;;5074324;28;20193;-73
2021/12/12 01:01:26;;;;;;;0.63;0.63;;;3.40;99.90;;;;;;5073745;28;20254;-73
2021/12/12 01:04:03;;;;;;;1.03;1.03;;;3.50;99.90;;;;;;5074863;28;20193;-72
2021/12/12 01:06:29;;;;;;;1.17;1.13;;;3.50;99.90;;;;;;5073817;28;20183;-73
2021/12/12 01:08:58;;;;;;;0.40;0.40;;;3.60;99.90;;;;;;5073082;28;20680;-73
2021/12/12 01:11:27;;;;;;;12.63;1.40;;;3.60;99.90;;;;;;5073574;28;20195;-74
2021/12/12 01:13:54;;;;;;;0.10;0.10;;;3.60;99.90;;;;;;5072562;28;20181;-73
2021/12/12 01:16:43;;;;;;;0.37;0.37;;;3.70;99.90;;;;;;5072809;28;20262;-75
2021/12/12 01:19:23;;;;;;;0.23;0.23;;;3.70;99.90;;;;;;5067058;28;20191;-76
2021/12/12 01:21:53;;;;;;;6.60;2.40;;;3.70;99.90;;;;;;5055083;28;20740;-76
2021/12/12 01:24:25;;;;;;;1.17;1.07;;;3.70;99.90;;;;;;5055856;28;20179;-73
2021/12/12 01:26:53;;;;;;;2.60;1.07;;;3.70;99.90;;;;;;5073968;28;20572;-76
2021/12/12 01:29:19;;;;;;;0.10;0.10;;;3.70;99.90;;;;;;5055650;28;20193;-74
2021/12/12 01:31:48;;;;;;;5.53;2.30;;;3.80;99.90;;;;;;5073245;28;20215;-74
2021/12/12 01:34:24;;;;;;;1.27;1.27;;;3.80;99.90;;;;;;5073166;28;20180;-75
2021/12/12 01:39:27;;;;;;;0.20;0.20;;;3.90;99.90;;;;;;5073180;28;20177;-73
2021/12/12 01:41:58;;;;;;;0.00;0.00;;;3.90;99.90;;;;;;5071288;28;20215;-74
2021/12/12 01:44:41;;;;;;;0.00;0.00;;;3.90;99.90;;;;;;5048748;28;20180;-73
2021/12/12 01:47:18;;;;;;;0.77;0.77;;;3.90;99.90;;;;;;5073056;28;20180;-73
2021/12/12 01:49:46;;;;;;;0.63;0.63;;;3.90;99.90;;;;;;5073107;28;20187;-73
2021/12/12 01:52:16;;;;;;;1.07;0.97;;;3.90;99.90;;;;;;5073019;28;20234;-73
2021/12/12 01:54:46;;;;;;;0.30;0.30;;;4.00;99.90;;;;;;5072699;28;20180;-73
2021/12/12 01:57:26;;;;;;;0.00;0.00;;;4.00;99.90;;;;;;5072495;28;20587;-73
2021/12/12 01:59:53;;;;;;;0.63;0.63;;;4.10;99.90;;;;;;5073029;28;20274;-73
2021/12/12 02:02:28;;;;;;;0.00;0.00;;;4.00;99.90;;;;;;5072839;28;20253;-73
2021/12/12 02:04:59;;;;;;;1.80;1.70;;;4.00;99.90;;;;;;5049728;28;20193;-73
2021/12/12 02:07:29;;;;;;;0.23;0.23;;;4.10;99.90;;;;;;5073600;28;20214;-73
2021/12/12 02:09:58;;;;;;;0.20;0.20;;;4.00;99.90;;;;;;5073453;28;20206;-73
2021/12/12 02:12:25;;;;;;;0.10;0.10;;;4.00;99.90;;;;;;5054271;28;20223;-73
2021/12/12 02:14:52;;;;;;;0.30;0.30;;;4.00;99.90;;;;;;5072868;28;20186;-73
2021/12/12 02:17:29;;;;;;;0.00;0.00;;;4.00;99.90;;;;;;5074374;28;20241;-72
2021/12/12 02:22:52;;;;;;;0.53;0.53;;;4.00;99.90;;;;;;5092094;22;20688;-74
2021/12/12 02:36:20;;;;;;;0.13;0.13;;;4.20;99.90;;;;;;5051662;28;20187;-74
2021/12/12 02:38:50;;;;;;;0.03;0.03;;;4.20;99.90;;;;;;5071904;28;20179;-74
2021/12/12 02:41:17;;;;;;;0.63;0.63;;;4.20;99.90;;;;;;5071700;28;20281;-75
2021/12/12 02:43:48;;;;;;;0.63;0.57;;;4.30;99.90;;;;;;5071293;28;20679;-74
2021/12/12 02:46:17;;;;;;;0.97;0.90;;;4.30;99.90;;;;;;5070010;28;20259;-75
2021/12/12 02:48:45;;;;;;;0.10;0.10;;;4.40;99.90;;;;;;5061632;28;20192;-75
2021/12/12 02:51:15;;;;;;;7.10;0.87;;;4.40;99.90;;;;;;5066955;28;20253;-74
2021/12/12 02:53:48;;;;;;;1.50;0.93;;;4.50;99.90;;;;;;5062782;28;20604;-74
2021/12/12 02:56:18;;;;;;;1.20;1.00;;;4.50;99.90;;;;;;5053252;28;20172;-74
2021/12/12 02:58:45;;;;;;;0.10;0.10;;;4.50;99.90;;;;;;5063286;28;20203;-74
2021/12/12 03:01:29;;;;;;;0.10;0.10;;;4.50;99.90;;;;;;5071919;28;20279;-74
2021/12/12 03:03:55;;;;;;;0.10;0.10;;;4.50;99.90;;;;;;5071962;28;20643;-74
2021/12/12 03:06:27;;;;;;;0.10;0.10;;;4.60;99.90;;;;;;5071353;28;20331;-73
2021/12/12 03:08:58;;;;;;;0.37;0.37;;;4.60;99.90;;;;;;5057429;28;20177;-74
2021/12/12 03:11:27;;;;;;;0.17;0.17;;;4.60;99.90;;;;;;5051261;28;20196;-75
2021/12/12 03:13:55;;;;;;;0.10;0.10;;;4.60;99.90;;;;;;5067155;28;20180;-75
2021/12/12 03:16:22;;;;;;;0.20;0.20;;;4.60;99.90;;;;;;5071748;28;20184;-72
2021/12/12 03:18:47;;;;;;;0.20;0.20;;;4.60;99.90;;;;;;5071820;28;20180;-74
2021/12/12 03:21:30;;;;;;;1.30;1.30;;;4.70;99.90;;;;;;5062102;28;20422;-74
2021/12/12 03:24:02;;;;;;;0.10;0.10;;;4.70;99.90;;;;;;5056061;28;20179;-74
2021/12/12 03:26:29;;;;;;;0.00;0.00;;;4.70;99.90;;;;;;5057632;28;20533;-74
2021/12/12 03:28:56;;;;;;;3.80;1.90;;;4.80;99.90;;;;;;5051135;28;20176;-73
2021/12/12 03:31:27;;;;;;;0.27;0.27;;;4.80;99.90;;;;;;5050966;28;20215;-74
2021/12/12 03:33:53;;;;;;;0.10;0.10;;;4.80;99.90;;;;;;5050026;28;20185;-74
2021/12/12 03:36:19;;;;;;;0.00;0.00;;;4.80;99.90;;;;;;5050758;28;20177;-74
2021/12/12 03:38:57;;;;;;;1.70;1.60;;;4.80;99.90;;;;;;5072497;28;20176;-74
2021/12/12 03:41:27;;;;;;;0.53;0.37;;;4.80;99.90;;;;;;5074545;28;20282;-74
2021/12/12 03:43:56;;;;;;;0.97;0.67;;;4.80;99.90;;;;;;5073207;28;20180;-74
2021/12/12 03:46:22;;;;;;;1.20;1.03;;;4.80;99.90;;;;;;5074129;28;20184;-72
2021/12/12 03:48:48;;;;;;;1.33;1.13;;;4.90;99.90;;;;;;5074991;28;20183;-74
2021/12/12 03:51:17;;;;;;;1.43;1.30;;;4.80;99.90;;;;;;5073017;28;20226;-74
2021/12/12 03:53:43;;;;;;;0.57;0.57;;;4.90;99.90;;;;;;5074367;28;20342;-75
2021/12/12 03:56:11;;;;;;;1.57;1.47;;;4.90;99.90;;;;;;5072846;28;20217;-75
2021/12/12 03:58:36;;;;;;;6.50;2.00;;;4.80;99.90;;;;;;5074633;28;20192;-71
2021/12/12 04:01:15;;;;;;;8.13;0.73;;;4.60;99.90;;;;;;5074366;28;20182;-71
2021/12/12 04:03:42;;;;;;;1.30;1.20;;;4.40;99.90;;;;;;5074773;28;20183;-73
2021/12/12 04:06:12;;;;;;;2.37;1.80;;;4.20;99.90;;;;;;5073901;28;20175;-72
2021/12/12 04:08:48;;;;;;;4.83;2.00;;;4.10;99.90;;;;;;5074202;28;20185;-74
2021/12/12 04:11:20;;;;;;;0.43;0.43;;;4.00;99.90;;;;;;5073223;28;20698;-74
2021/12/12 04:13:49;;;;;;;0.90;0.90;;;3.90;99.90;;;;;;5073638;28;20274;-72
2021/12/12 04:16:17;;;;;;;0.13;0.13;;;3.80;99.90;;;;;;5073944;28;20181;-72
2021/12/12 04:18:44;;;;;;;1.00;1.00;;;3.80;99.90;;;;;;5073958;28;20265;-72
2021/12/12 04:21:10;;;;;;;3.73;3.03;;;3.80;99.90;;;;;;5073778;28;20206;-74
2021/12/12 04:23:36;;;;;;;1.13;1.13;;;3.80;99.90;;;;;;5073897;28;20191;-74
2021/12/12 04:26:22;;;;;;;2.20;1.90;;;3.80;99.90;;;;;;5072564;28;20269;-72
2021/12/12 04:29:14;;;;;;;0.10;0.10;;;3.90;99.90;;;;;;5072955;28;20285;-74
2021/12/12 04:31:43;;;;;;;1.90;1.80;;;4.20;99.90;;;;;;5058170;28;20219;-74
2021/12/12 04:34:09;;;;;;;1.27;1.27;;;4.50;99.90;;;;;;5065388;28;20226;-76
2021/12/12 04:36:43;;;;;;;2.57;2.37;;;4.60;99.90;;;;;;5056169;28;20187;-75
2021/12/12 04:39:12;;;;;;;0.70;0.60;;;4.70;99.90;;;;;;5074170;28;20171;-76
2021/12/12 04:41:41;;;;;;;2.23;0.33;;;4.80;99.90;;;;;;5057229;28;20199;-75
2021/12/12 04:44:07;;;;;;;7.33;1.37;;;4.80;99.90;;;;;;5064798;28;20185;-76
2021/12/12 04:49:54;;;;;;;0.10;0.10;;;4.60;99.90;;;;;;5059232;28;20183;-75
2021/12/12 04:52:14;;;;;;;0.93;0.93;;;4.20;99.90;;;;;;5074114;28;20212;-75
2021/12/12 04:54:48;;;;;;;1.00;0.77;;;4.10;99.90;;;;;;5073965;28;20208;-75
2021/12/12 04:57:27;;;;;;;0.93;0.93;;;4.10;99.90;;;;;;5062764;28;20213;-76
2021/12/12 05:00:08;;;;;;;0.47;0.40;;;4.20;99.90;;;;;;5059463;28;20179;-75
2021/12/12 05:02:47;;;;;;;2.13;2.00;;;4.20;99.90;;;;;;5072097;28;20286;-75
2021/12/12 05:05:27;;;;;;;3.80;1.70;;;4.50;99.90;;;;;;5054881;28;20191;-75
2021/12/12 05:08:04;;;;;;;1.10;0.97;;;4.50;99.90;;;;;;5053184;28;20280;-75
2021/12/12 05:10:42;;;;;;;1.30;0.70;;;4.70;99.90;;;;;;5053521;28;20200;-75
2021/12/12 05:13:19;;;;;;;0.40;0.40;;;4.80;99.90;;;;;;5053506;28;20205;-76
2021/12/12 05:15:51;;;;;;;0.40;0.33;;;4.80;99.90;;;;;;5070979;28;20174;-74
2021/12/12 05:18:30;;;;;;;1.13;1.13;;;4.80;99.90;;;;;;5062821;28;20165;-75
2021/12/12 05:21:03;;;;;;;1.23;1.20;;;4.80;99.90;;;;;;5059566;28;20180;-74
2021/12/12 05:23:31;;;;;;;1.17;1.07;;;4.80;99.90;;;;;;5073590;28;20180;-76
2021/12/12 05:25:59;;;;;;;1.80;1.53;;;4.80;99.90;;;;;;5073057;28;20267;-77
2021/12/12 05:28:43;;;;;;;0.10;0.10;;;4.80;99.90;;;;;;5073521;28;20187;-77
2021/12/12 05:31:11;;;;;;;0.00;0.00;;;4.80;99.90;;;;;;5061689;28;20207;-76
2021/12/12 05:33:37;;;;;;;1.03;1.03;;;4.80;99.90;;;;;;5056702;28;20204;-77
2021/12/12 05:36:07;;;;;;;3.20;1.93;;;4.80;99.90;;;;;;5061540;28;20306;-76
2021/12/12 05:38:33;;;;;;;0.43;0.43;;;4.80;99.90;;;;;;5072248;28;20177;-76
2021/12/12 05:40:59;;;;;;;0.50;0.50;;;4.70;99.90;;;;;;5060359;28;20226;-76
2021/12/12 05:43:25;;;;;;;2.27;2.17;;;4.70;99.90;;;;;;5072222;28;20183;-76
2021/12/12 05:45:52;;;;;;;1.70;1.00;;;4.70;99.90;;;;;;5073452;28;20190;-75
2021/12/12 05:48:20;;;;;;;1.30;1.30;;;4.50;99.90;;;;;;5072390;28;20181;-76
2021/12/12 05:50:46;;;;;;;1.50;1.23;;;4.40;99.90;;;;;;5072540;28;20185;-76
2021/12/12 05:53:14;;;;;;;1.03;0.97;;;4.30;99.90;;;;;;5073434;28;20203;-76
2021/12/12 05:55:40;;;;;;;0.57;0.57;;;4.30;99.90;;;;;;5060705;28;20175;-76
2021/12/12 05:58:11;;;;;;;2.33;1.80;;;4.40;99.90;;;;;;5057437;28;20206;-76
2021/12/12 06:00:50;;;;;;;0.37;0.37;;;4.50;99.90;;;;;;5074290;28;20273;-76
2021/12/12 06:03:20;;;;;;;0.77;0.77;;;4.60;99.90;;;;;;5071715;28;20190;-74
2021/12/12 06:05:46;;;;;;;1.23;1.23;;;4.60;99.90;;;;;;5073848;28;20180;-76
2021/12/12 06:08:13;;;;;;;9.90;1.90;;;4.60;99.90;;;;;;5072349;28;20184;-75
2021/12/12 06:10:42;;;;;;;0.50;0.50;;;4.60;99.90;;;;;;5073435;28;20179;-74
2021/12/12 06:13:13;;;;;;;0.10;0.10;;;4.60;99.90;;;;;;5071184;28;20295;-74
2021/12/12 06:15:41;;;;;;;0.10;0.10;;;4.60;99.90;;;;;;5073080;28;20184;-74
2021/12/12 06:18:07;;;;;;;1.17;1.17;;;4.70;99.90;;;;;;5072937;28;20168;-75
2021/12/12 06:20:33;;;;;;;0.50;0.50;;;4.70;99.90;;;;;;5073580;28;20209;-75
2021/12/12 06:23:00;;;;;;;0.07;0.07;;;4.70;99.90;;;;;;5062056;28;20256;-75
2021/12/12 06:25:26;;;;;;;2.73;1.77;;;4.70;99.90;;;;;;5052117;28;20193;-75
2021/12/12 06:27:53;;;;;;;4.07;1.30;;;4.80;99.90;;;;;;5051031;28;20275;-75
2021/12/12 06:30:21;;;;;;;2.20;2.10;;;4.70;99.90;;;;;;5064566;28;20179;-74
2021/12/12 06:32:49;;;;;;;0.57;0.53;;;4.80;99.90;;;;;;5051631;28;20250;-76
2021/12/12 06:35:16;;;;;;;0.20;0.20;;;4.80;99.90;;;;;;5064149;28;20288;-75
2021/12/12 06:37:43;;;;;;;0.27;0.27;;;4.80;99.90;;;;;;5063013;28;20199;-75
2021/12/12 06:40:12;;;;;;;2.10;1.00;;;4.80;99.90;;;;;;5071931;28;20547;-75
2021/12/12 06:42:38;;;;;;;0.40;0.40;;;4.80;99.90;;;;;;5071323;28;20645;-74
2021/12/12 06:45:07;;;;;;;3.20;2.30;;;4.80;99.90;;;;;;5071778;28;20176;-74
2021/12/12 06:47:34;;;;;;;0.63;0.63;;;4.80;99.90;;;;;;5070380;28;20320;-75
2021/12/12 06:50:00;;;;;;;1.03;1.03;;;4.80;99.90;;;;;;5072586;28;20643;-75
2021/12/12 06:52:26;;;;;;;0.40;0.40;;;4.90;99.90;;;;;;5072022;28;20200;-75
2021/12/12 06:54:52;;;;;;;4.57;0.63;;;4.90;99.90;;;;;;5072202;28;20547;-75
2021/12/12 06:57:19;;;;;;;0.40;0.40;;;4.90;99.90;;;;;;5071887;28;20521;-74
2021/12/12 06:59:47;;;;;;;2.53;2.03;;;4.90;99.90;;;;;;5073403;28;20595;-75
2021/12/12 07:02:13;;;;;;;2.90;1.03;;;4.80;99.90;;;;;;5060557;28;20255;-75
2021/12/12 07:04:41;;;;;;;0.57;0.50;;;4.80;99.90;;;;;;5059605;28;20667;-75
2021/12/12 07:07:10;;;;;;;4.03;2.73;;;4.80;99.90;;;;;;5073269;28;20183;-75
2021/12/12 07:09:37;;;;;;;0.30;0.30;;;4.70;99.90;;;;;;5073447;28;20225;-76
2021/12/12 07:12:08;;;;;;;2.17;0.73;;;4.70;99.90;;;;;;5060440;28;20201;-75
2021/12/12 07:14:34;;;;;;;0.23;0.23;;;4.80;99.90;;;;;;5057585;28;20181;-75
2021/12/12 07:17:00;;;;;;;1.23;1.17;;;4.90;99.90;;;;;;5057220;28;20181;-75
2021/12/12 07:19:27;;;;;;;0.30;0.30;;;4.90;99.90;;;;;;5049761;28;20181;-75
2021/12/12 07:21:53;;;;;;;0.40;0.40;;;4.90;99.90;;;;;;5065869;28;20219;-77
2021/12/12 07:24:20;;;;;;;1.10;1.10;;;5.00;99.90;;;;;;5069869;28;20185;-75
2021/12/12 07:26:46;;;;;;;0.30;0.30;;;5.00;99.90;;;;;;5070369;28;20180;-76
2021/12/12 07:29:12;;;;;;;1.43;1.43;;;5.00;99.90;;;;;;5056680;28;20255;-78
2021/12/12 07:31:40;;;;;;;0.03;0.03;;;5.00;99.90;;;;;;5055751;28;20228;-73
2021/12/12 07:34:09;;;;;;;0.20;0.20;;;5.10;99.90;;;;;;5063261;28;20533;-73
2021/12/12 07:36:43;;;;;;;0.00;0.00;;;5.10;99.90;;;;;;5061747;28;20181;-71
2021/12/12 07:39:12;;;;;;;0.80;0.80;;;5.10;99.90;;;;;;5075700;28;20177;-73
2021/12/12 07:41:41;;;;;;;6.33;1.10;;;5.10;99.90;;;;;;5075104;28;20227;-75
2021/12/12 07:44:10;;;;;;;0.00;0.00;;;5.10;99.90;;;;;;5075500;28;20176;-73
2021/12/12 07:46:37;;;;;;;0.40;0.40;;;5.20;99.90;;;;;;5069986;28;20671;-73
2021/12/12 07:49:05;;;;;;;0.73;0.57;;;5.20;99.90;;;;;;5066031;28;20686;-73
2021/12/12 07:51:31;;;;;;;0.20;0.20;;;5.20;99.90;;;;;;5057572;28;20201;-73
2021/12/12 07:53:59;;;;;;;0.23;0.23;;;5.20;99.90;;;;;;5056468;28;20690;-74
2021/12/12 07:56:29;;;;;;;0.47;0.47;;;5.30;99.90;;;;;;5072430;28;20272;-74
2021/12/12 07:58:56;;;;;;;0.37;0.37;;;5.30;99.90;;;;;;5073371;28;20190;-74
2021/12/12 08:01:23;;;;;;;0.20;0.20;;;5.40;99.90;;;;;;5075225;28;20200;-74
2021/12/12 08:03:52;;;;;;;0.63;0.63;;;5.40;99.90;;;;;;5075573;28;20176;-74
2021/12/12 08:06:19;;;;;;;1.00;0.97;;;5.40;99.90;;;;;;5075427;28;20536;-74
2021/12/12 08:08:45;;;;;;;0.10;0.10;;;5.40;99.90;;;;;;5061704;28;20173;-74
2021/12/12 08:11:17;;;;;;;2.23;0.67;;;5.40;99.90;;;;;;5060408;28;20277;-74
2021/12/12 08:13:43;;;;;;;0.00;0.00;;;5.40;99.90;;;;;;5074308;28;20200;-75
2021/12/12 08:16:09;;;;;;;0.83;0.83;;;5.40;99.90;;;;;;5062329;28;20203;-74
2021/12/12 08:18:38;;;;;;;0.57;0.40;;;5.50;99.90;;;;;;5061539;28;20188;-74
2021/12/12 08:21:05;;;;;;;0.00;0.00;;;5.50;99.90;;;;;;5074618;28;20255;-73
2021/12/12 08:23:32;;;;;;;0.00;0.00;;;5.50;99.90;;;;;;5067110;22;20582;-74
2021/12/12 08:25:58;;;;;;;0.10;0.10;;;5.60;99.90;;;;;;5052350;28;20552;-74
2021/12/12 08:28:24;;;;;;;0.10;0.10;;;5.60;99.90;;;;;;5053234;28;20173;-76
2021/12/12 08:30:51;;;;;;;0.10;0.10;;;5.60;99.90;;;;;;5052153;28;20181;-74
2021/12/12 08:33:18;;;;;;;0.50;0.50;;;5.60;99.90;;;;;;5053198;28;20213;-74
2021/12/12 08:35:44;;;;;;;0.27;0.23;;;5.60;99.90;;;;;;5044658;28;20170;-74
2021/12/12 08:38:12;;;;;;;0.10;0.10;;;5.60;99.90;;;;;;5048667;28;20173;-74
2021/12/12 08:40:45;;;;;;;0.10;0.10;;;5.60;99.90;;;;;;5053412;28;20603;-74
2021/12/12 08:43:13;;;;;;;0.50;0.50;;;5.60;99.90;;;;;;5043180;28;20283;-74
2021/12/12 08:46:02;;;;;;;0.20;0.20;;;5.70;99.90;;;;;;5052882;28;20612;-73
2021/12/12 08:48:31;;;;;;;0.07;0.07;;;5.70;99.90;;;;;;5052245;28;20679;-74
2021/12/12 08:51:00;;;;;;;0.10;0.10;;;5.70;99.90;;;;;;5053325;28;20535;-73
2021/12/12 08:53:26;;;;;;;0.00;0.00;;;5.70;99.90;;;;;;5052026;28;20584;-74
2021/12/12 08:55:54;;;;;;;0.20;0.20;;;5.80;99.90;;;;;;5052604;28;20176;-74
2021/12/12 08:58:23;;;;;;;0.03;0.03;;;5.80;99.90;;;;;;5052985;28;20188;-74
2021/12/12 09:01:00;;;;;;;0.00;0.00;;;5.90;99.90;;;;;;5051662;28;20178;-75
2021/12/12 09:03:38;;;;;;;0.47;0.47;;;5.90;99.90;;;;;;5052478;28;20200;-75
2021/12/12 09:06:05;;;;;;;0.00;0.00;;;6.00;99.90;;;;;;5052626;28;20390;-74
2021/12/12 09:08:52;;;;;;;0.77;0.20;;;6.00;99.90;;;;;;5052656;28;20269;-74
2021/12/12 09:11:38;;;;;;;0.20;0.20;;;6.00;99.90;;;;;;5052813;28;20176;-74
2021/12/12 09:14:08;;;;;;;0.00;0.00;;;6.00;99.90;;;;;;5052479;28;20212;-74
2021/12/12 09:16:41;;;;;;;0.20;0.20;;;6.10;99.90;;;;;;5052623;28;20609;-74
2021/12/12 09:19:28;;;;;;;0.20;0.20;;;6.10;99.90;;;;;;5052440;28;20725;-73
2021/12/12 09:22:28;;;;;;;0.00;0.00;;;6.10;99.90;;;;;;5051031;28;20184;-74
2021/12/12 09:25:18;;;;;;;0.83;0.57;;;6.20;99.90;;;;;;5052723;28;20187;-74
2021/12/12 09:27:51;;;;;;;0.00;0.00;;;6.20;99.90;;;;;;5041864;28;20544;-74
2021/12/12 09:30:22;;;;;;;0.20;0.20;;;6.20;99.90;;;;;;5052352;28;20192;-74
2021/12/12 09:33:12;;;;;;;0.00;0.00;;;6.20;99.90;;;;;;5051989;28;20309;-74
2021/12/12 09:35:51;;;;;;;1.13;1.13;;;6.20;99.90;;;;;;5044330;28;20170;-73
2021/12/12 09:38:20;;;;;;;0.33;0.33;;;6.30;99.90;;;;;;5048636;28;20175;-74
2021/12/12 09:41:11;;;;;;;0.33;0.33;;;6.30;99.90;;;;;;5052164;28;20173;-74
2021/12/12 09:44:17;;;;;;;0.10;0.10;;;6.30;99.90;;;;;;5042394;28;20224;-74
2021/12/12 09:47:31;;;;;;;0.00;0.00;;;6.40;99.90;;;;;;5051375;28;20176;-74
2021/12/12 09:53:23;;;;;;;0.10;0.10;;;6.60;99.90;;;;;;5051291;28;20345;-74
2021/12/12 09:56:26;;;;;;;0.43;0.43;;;6.70;99.90;;;;;;5051538;28;20648;-73
2021/12/12 09:59:01;;;;;;;0.40;0.40;;;6.70;99.90;;;;;;5051342;28;20196;-74
2021/12/12 10:01:33;;;;;;;0.20;0.20;;;6.80;99.90;;;;;;5051582;28;20180;-73
2021/12/12 10:04:08;;;;;;;0.10;0.10;;;6.80;99.90;;;;;;5051637;28;20197;-74
2021/12/12 10:07:06;;;;;;;0.10;0.10;;;6.80;99.90;;;;;;5051748;28;20696;-73
2021/12/12 10:09:42;;;;;;;0.07;0.07;;;6.90;99.90;;;;;;5038430;28;20271;-73
2021/12/12 10:12:19;;;;;;;0.00;0.00;;;7.00;99.90;;;;;;5051598;28;20203;-74
2021/12/12 10:14:59;;;;;;;0.10;0.10;;;7.00;99.90;;;;;;5050279;28;20606;-74
2021/12/12 10:17:37;;;;;;;0.93;0.60;;;7.10;99.90;;;;;;5051224;28;20205;-74
2021/12/12 10:20:11;;;;;;;0.23;0.23;;;7.10;99.90;;;;;;5049928;28;20211;-73
2021/12/12 10:23:10;;;;;;;1.43;0.83;;;7.20;99.90;;;;;;5050158;28;20221;-74
2021/12/12 10:25:45;;;;;;;0.00;0.00;;;7.20;99.90;;;;;;5051225;28;20650;-73
2021/12/12 10:28:32;;;;;;;0.00;0.00;;;7.20;99.90;;;;;;5051269;28;20181;-74
2021/12/12 10:31:19;;;;;;;0.20;0.20;;;7.30;99.90;;;;;;5051412;28;20249;-74
2021/12/12 10:33:54;;;;;;;0.00;0.00;;;7.30;99.90;;;;;;5049869;28;20351;-74
2021/12/12 10:36:26;;;;;;;0.20;0.20;;;7.30;99.90;;;;;;5037622;28;20252;-74
2021/12/12 10:39:12;;;;;;;0.07;0.07;;;7.30;99.90;;;;;;5037156;28;20220;-74
2021/12/12 10:41:42;;;;;;;0.10;0.10;;;7.50;99.90;;;;;;5051140;28;20177;-74
2021/12/12 10:44:20;;;;;;;0.03;0.03;;;7.50;99.90;;;;;;5042105;28;20200;-74
2021/12/12 10:46:57;;;;;;;0.20;0.20;;;7.50;99.90;;;;;;5049859;28;20177;-74
2021/12/12 10:49:52;;;;;;;0.10;0.10;;;7.50;99.90;;;;;;5049620;28;20188;-73
2021/12/12 10:52:31;;;;;;;0.20;0.20;;;7.60;99.90;;;;;;5052995;28;20627;-74
2021/12/12 10:55:06;;;;;;;0.10;0.10;;;7.70;99.90;;;;;;5049706;28;20192;-74
2021/12/12 10:57:35;;;;;;;0.30;0.30;;;7.70;99.90;;;;;;5049562;28;20184;-74
2021/12/12 11:00:10;;;;;;;0.23;0.23;;;7.70;99.90;;;;;;5050831;28;20633;-73
2021/12/12 11:02:44;;;;;;;0.10;0.10;;;7.70;99.90;;;;;;5049542;28;20231;-74
2021/12/12 11:05:14;;;;;;;0.43;0.40;;;7.60;99.90;;;;;;5051182;28;20189;-74
2021/12/12 11:07:46;;;;;;;1.20;0.83;;;7.60;99.90;;;;;;5051401;28;20207;-74
2021/12/12 11:10:20;;;;;;;0.10;0.10;;;7.60;99.90;;;;;;5051264;28;20216;-73
2021/12/12 11:13:03;;;;;;;0.00;0.00;;;7.50;99.90;;;;;;5051735;28;20705;-75
2021/12/12 11:15:48;;;;;;;0.10;0.10;;;7.40;99.90;;;;;;5051103;28;20541;-74
2021/12/12 11:18:26;;;;;;;0.10;0.10;;;7.40;99.90;;;;;;5050368;28;20276;-73
2021/12/12 11:21:04;;;;;;;0.10;0.10;;;7.40;99.90;;;;;;5051241;28;20534;-74
2021/12/12 11:23:35;;;;;;;0.47;0.47;;;7.40;99.90;;;;;;5049377;28;20749;-74
2021/12/12 11:26:15;;;;;;;0.50;0.40;;;7.40;99.90;;;;;;5050445;28;20654;-74
2021/12/12 11:28:46;;;;;;;0.37;0.37;;;7.40;99.90;;;;;;5050101;28;20181;-74
2021/12/12 11:31:16;;;;;;;0.40;0.40;;;7.50;99.90;;;;;;5051240;28;20178;-73
2021/12/12 11:33:46;;;;;;;0.47;0.47;;;7.50;99.90;;;;;;5050542;28;20213;-74
2021/12/12 11:36:15;;;;;;;0.47;0.47;;;7.60;99.90;;;;;;5036920;28;20239;-74
2021/12/12 11:38:46;;;;;;;0.30;0.30;;;7.60;99.90;;;;;;5048817;28;20177;-73
2021/12/12 11:41:37;;;;;;;0.10;0.10;;;7.60;99.90;;;;;;5050987;28;20209;-74
2021/12/12 11:44:22;;;;;;;0.93;0.90;;;7.60;99.90;;;;;;5031730;28;20208;-74
2021/12/12 11:47:08;;;;;;;0.93;0.87;;;7.60;99.90;;;;;;5050000;28;20276;-74
2021/12/12 11:49:50;;;;;;;0.30;0.30;;;7.60;99.90;;;;;;5050219;28;20234;-72
2021/12/12 11:52:33;;;;;;;0.17;0.17;;;7.70;99.90;;;;;;5050394;28;20205;-74
2021/12/12 11:55:07;;;;;;;0.40;0.40;;;7.60;99.90;;;;;;5050108;28;20180;-73
2021/12/12 11:57:43;;;;;;;0.43;0.40;;;7.70;99.90;;;;;;5050249;28;20181;-73
2021/12/12 12:00:16;;;;;;;13.23;1.03;;;7.80;99.90;;;;;;5053836;28;20176;-73
2021/12/12 12:03:13;;;;;;;0.07;0.07;;;7.70;99.90;;;;;;5054411;28;20204;-73
2021/12/12 12:06:26;;;;;;;1.50;1.03;;;7.80;99.90;;;;;;5053744;28;20189;-73
2021/12/12 12:09:07;;;;;;;0.10;0.10;;;7.80;99.90;;;;;;5007355;28;20246;-73
2021/12/12 12:11:46;;;;;;;0.13;0.13;;;8.00;99.90;;;;;;5053937;28;20722;-74
2021/12/12 12:14:23;;;;;;;0.37;0.37;;;8.00;99.90;;;;;;5053605;28;20216;-73
2021/12/12 12:16:58;;;;;;;0.20;0.20;;;8.10;99.90;;;;;;5053525;28;20656;-74
2021/12/12 12:19:45;;;;;;;0.20;0.20;;;8.10;99.90;;;;;;5053641;28;20191;-73
2021/12/12 12:22:35;;;;;;;1.40;0.80;;;8.10;99.90;;;;;;5053333;28;20217;-73
2021/12/12 12:25:16;;;;;;;0.73;0.67;;;8.10;99.90;;;;;;5053600;28;20196;-73
2021/12/12 12:28:06;;;;;;;0.00;0.00;;;8.10;99.90;;;;;;5053413;28;20173;-73
2021/12/12 12:30:57;;;;;;;0.30;0.30;;;8.20;99.90;;;;;;5052642;28;20751;-74
2021/12/12 12:33:42;;;;;;;0.10;0.10;;;8.20;99.90;;;;;;5053205;28;20220;-73
2021/12/12 12:36:22;;;;;;;0.37;0.37;;;8.20;99.90;;;;;;5041279;28;20203;-74
2021/12/12 12:39:26;;;;;;;0.20;0.20;;;8.20;99.90;;;;;;5040873;28;20173;-74
2021/12/12 12:42:29;;;;;;;0.50;0.50;;;8.20;99.90;;;;;;5049937;28;20173;-73
2021/12/12 12:45:13;;;;;;;0.10;0.10;;;8.20;99.90;;;;;;5050676;28;20667;-74
2021/12/12 12:48:13;;;;;;;0.10;0.10;;;8.20;99.90;;;;;;5052927;28;20229;-75
2021/12/12 12:51:10;;;;;;;1.10;1.00;;;8.20;99.90;;;;;;5053269;28;20227;-74
2021/12/12 12:54:02;;;;;;;0.30;0.30;;;8.20;99.90;;;;;;5052527;28;20205;-74
2021/12/12 12:56:58;;;;;;;1.27;1.17;;;8.20;99.90;;;;;;5052602;28;20587;-75
2021/12/12 12:59:38;;;;;;;0.73;0.50;;;8.20;99.90;;;;;;5052797;28;20169;-75
2021/12/12 13:02:27;;;;;;;0.07;0.07;;;8.20;99.90;;;;;;5052882;28;20525;-75
2021/12/12 13:04:59;;;;;;;0.30;0.30;;;8.20;99.90;;;;;;5053013;28;20568;-75
2021/12/12 13:07:40;;;;;;;0.00;0.00;;;8.30;99.90;;;;;;5052391;28;20173;-74
2021/12/12 13:10:11;;;;;;;0.10;0.10;;;8.20;99.90;;;;;;5051878;28;20242;-75
2021/12/12 13:12:36;;;;;;;0.77;0.77;;;8.20;99.90;;;;;;5052481;28;20205;-74
2021/12/12 13:15:11;;;;;;;0.20;0.20;;;8.20;99.90;;;;;;5046784;28;20580;-73
2021/12/12 13:18:06;;;;;;;0.07;0.07;;;8.20;99.90;;;;;;5044635;28;20177;-74
2021/12/12 13:20:58;;;;;;;0.10;0.10;;;8.20;99.90;;;;;;5042363;28;20185;-74
2021/12/12 13:23:40;;;;;;;0.40;0.40;;;8.20;99.90;;;;;;5051889;28;20304;-74
2021/12/12 13:26:11;;;;;;;0.47;0.47;;;8.30;99.90;;;;;;5052392;28;20215;-74
2021/12/12 13:28:56;;;;;;;0.43;0.43;;;;;;;;;;5052433;28;20185;-75
2021/12/12 13:31:28;;;;;;;0.93;0.93;;;8.20;99.90;;;;;;5052254;28;20686;-75
2021/12/12 13:34:17;;;;;;;0.03;0.03;;;8.30;99.90;;;;;;5052264;28;20294;-75
2021/12/12 13:36:50;;;;;;;0.40;0.40;;;8.30;99.90;;;;;;5038467;28;20177;-74
2021/12/12 13:39:46;;;;;;;0.10;0.10;;;8.30;99.90;;;;;;5050945;28;20313;-75
2021/12/12 13:42:38;;;;;;;0.20;0.20;;;8.30;99.90;;;;;;5047049;28;20259;-70
2021/12/12 13:45:25;;;;;;;1.30;1.20;;;8.30;99.90;;;;;;5050692;28;20521;-74
2021/12/12 13:48:29;;;;;;;0.37;0.37;;;8.40;99.90;;;;;;5051723;28;20185;-74
2021/12/12 13:51:15;;;;;;;0.83;0.83;;;8.40;99.90;;;;;;5047152;28;20702;-75
2021/12/12 13:53:46;;;;;;;0.20;0.20;;;8.40;99.90;;;;;;5051969;28;20201;-74
2021/12/12 13:56:20;;;;;;;0.10;0.10;;;8.40;99.90;;;;;;5051646;28;20605;-74